Observation data for Seagraves on 02/22/2019      Previous  Date  Next       Current Mesonet Observations  Soil Data  Daily Summary Page  Observations in Plain Language
KSGV 220600Z 11008KT 04/M01 A2983 RMK A01 T00431011  RH  069%=      5-min Rain = 0
KSGV 220605Z 12008KT 04/M01 A2983 RMK A01 T00421010  RH  069%=      5-min Rain = 0
KSGV 220610Z 11007G13KT 04/M01 A2983 RMK A01 T00411009  RH  070%=      5-min Rain = 0
KSGV 220615Z 11007KT 04/M01 A2984 RMK A01 T00401009  RH  071%=      5-min Rain = 0
KSGV 220620Z 11008KT 04/M01 A2983 RMK A01 T00401007  RH  072%=      5-min Rain = 0
KSGV 220625Z 11007KT 04/M01 A2983 RMK A01 T00401007  RH  073%=      5-min Rain = 0
KSGV 220630Z 11007KT 04/M01 A2983 RMK A01 T00381007  RH  073%=      5-min Rain = 0
KSGV 220635Z 11007KT 04/M01 A2983 RMK A01 T00371006  RH  074%=      5-min Rain = 0
KSGV 220640Z 11007KT 04/M01 A2984 RMK A01 T00371005  RH  075%=      5-min Rain = 0
KSGV 220645Z 11007G13KT 04/M00 A2984 RMK A01 T00361004  RH  076%=      5-min Rain = 0
KSGV 220650Z 11007KT 03/M00 A2984 RMK A01 T00341004  RH  077%=      5-min Rain = 0
KSGV 220655Z 11008KT 03/M00 A2984 RMK A01 T00331004  RH  077%=      5-min Rain = 0
KSGV 220700Z 12008KT 03/M00 A2984 RMK A01 T00331003  RH  078%=      5-min Rain = 0
KSGV 220705Z 11007KT 03/M00 A2984 RMK A01 T00321003  RH  079%=      5-min Rain = 0
KSGV 220710Z 11006KT 03/M00 A2985 RMK A01 T00311003  RH  079%=      5-min Rain = 0
KSGV 220715Z 11006KT 03/M00 A2985 RMK A01 T00301002  RH  080%=      5-min Rain = 0
KSGV 220720Z 11005KT 03/M00 A2985 RMK A01 T00291002  RH  081%=      5-min Rain = 0
KSGV 220725Z 11006KT 03/M00 A2985 RMK A01 T00291002  RH  081%=      5-min Rain = 0
KSGV 220730Z 11005KT 03/M00 A2985 RMK A01 T00281002  RH  081%=      5-min Rain = 0
KSGV 220735Z 11005KT 03/M00 A2986 RMK A01 T00271002  RH  082%=      5-min Rain = 0
KSGV 220740Z 11005KT 03/M00 A2986 RMK A01 T00261003  RH  082%=      5-min Rain = 0
KSGV 220745Z 11006KT 03/M00 A2985 RMK A01 T00261003  RH  082%=      5-min Rain = 0
KSGV 220750Z 11006KT 02/M00 A2985 RMK A01 T00241003  RH  083%=      5-min Rain = 0
KSGV 220755Z 12006KT 02/M00 A2985 RMK A01 T00241004  RH  083%=      5-min Rain = 0
KSGV 220800Z 11005KT 02/M00 A2986 RMK A01 T00221004  RH  083%=      5-min Rain = 0
KSGV 220805Z 11006KT 02/M00 A2986 RMK A01 T00221004  RH  084%=      5-min Rain = 0
KSGV 220810Z 11006KT 02/M01 A2985 RMK A01 T00201005  RH  084%=      5-min Rain = 0
KSGV 220815Z 12006KT 02/M01 A2986 RMK A01 T00191006  RH  085%=      5-min Rain = 0
KSGV 220820Z 11007KT 02/M01 A2985 RMK A01 T00191006  RH  085%=      5-min Rain = 0
KSGV 220825Z 12006KT 02/M01 A2986 RMK A01 T00181006  RH  085%=      5-min Rain = 0
KSGV 220830Z 11007KT 02/M01 A2985 RMK A01 T00181006  RH  085%=      5-min Rain = 0
KSGV 220835Z 11007KT 02/M01 A2985 RMK A01 T00181006  RH  085%=      5-min Rain = 0
KSGV 220840Z 11007KT 02/M01 A2985 RMK A01 T00171006  RH  085%=      5-min Rain = 0
KSGV 220845Z 11006KT 02/M01 A2985 RMK A01 T00171006  RH  086%=      5-min Rain = 0
KSGV 220850Z 11006KT 02/M01 A2985 RMK A01 T00161007  RH  086%=      5-min Rain = 0
KSGV 220855Z 10005G10KT 02/M01 A2985 RMK A01 T00161006  RH  086%=      5-min Rain = 0
KSGV 220900Z 10006KT 02/M01 A2985 RMK A01 T00161005  RH  087%=      5-min Rain = 0
KSGV 220905Z 10004KT 02/M01 A2985 RMK A01 T00151006  RH  087%=      5-min Rain = 0
KSGV 220910Z 08004KT 01/M01 A2985 RMK A01 T00141006  RH  087%=      5-min Rain = 0
KSGV 220915Z 08005KT 01/M01 A2985 RMK A01 T00131007  RH  088%=      5-min Rain = 0
KSGV 220920Z 08004KT 01/M01 A2985 RMK A01 T00131006  RH  088%=      5-min Rain = 0
KSGV 220925Z 06003KT 01/M01 A2985 RMK A01 T00131007  RH  088%=      5-min Rain = 0
KSGV 220930Z 06003KT 01/M01 A2985 RMK A01 T00111008  RH  088%=      5-min Rain = 0
KSGV 220935Z 07003KT 01/M01 A2985 RMK A01 T00111008  RH  088%=      5-min Rain = 0
KSGV 220940Z 07003KT 01/M01 A2985 RMK A01 T00101009  RH  088%=      5-min Rain = 0
KSGV 220945Z 06003KT 01/M01 A2985 RMK A01 T00091010  RH  088%=      5-min Rain = 0
KSGV 220950Z 04003KT 01/M01 A2985 RMK A01 T00071011  RH  089%=      5-min Rain = 0
KSGV 220955Z 02004KT 00/M01 A2986 RMK A01 T00041013  RH  089%=      5-min Rain = 0
KSGV 221000Z 03003KT M00/M02 A2985 RMK A01 T10011018  RH  089%=      5-min Rain = 0
KSGV 221005Z 07002KT 00/02 A2985 RMK A01 T00-00-15  RH  091%=      5-min Rain = 0
KSGV 221010Z 05002KT 00/M01 A2985 RMK A01 T00011013  RH  091%=      5-min Rain = 0
KSGV 221015Z 01003KT M00/M02 A2985 RMK A01 T10041019  RH  090%=      5-min Rain = 0
KSGV 221020Z 02003KT M02/M03 A2985 RMK A01 T10151031  RH  090%=      5-min Rain = 0
KSGV 221025Z 06003KT M02/M03 A2985 RMK A01 T10151028  RH  092%=      5-min Rain = 0
KSGV 221030Z 05003KT M01/M02 A2985 RMK A01 T10071017  RH  094%=      5-min Rain = 0
KSGV 221035Z 04003KT M01/M02 A2986 RMK A01 T10051016  RH  093%=      5-min Rain = 0
KSGV 221040Z 04003KT M01/M02 A2985 RMK A01 T10061018  RH  093%=      5-min Rain = 0
KSGV 221045Z 04004KT M01/M02 A2986 RMK A01 T10051017  RH  092%=      5-min Rain = 0
KSGV 221050Z 04004KT M01/M02 A2985 RMK A01 T10051018  RH  092%=      5-min Rain = 0
KSGV 221055Z 05003KT M01/M02 A2986 RMK A01 T10061019  RH  092%=      5-min Rain = 0
KSGV 221100Z 06003KT M01/M02 A2986 RMK A01 T10071020  RH  092%=      5-min Rain = 0
KSGV 221105Z 04003KT M01/M02 A2986 RMK A01 T10071020  RH  092%=      5-min Rain = 0
KSGV 221110Z 05003KT M01/M02 A2986 RMK A01 T10081020  RH  092%=      5-min Rain = 0
KSGV 221115Z 06004KT M01/M02 A2986 RMK A01 T10071019  RH  093%=      5-min Rain = 0
KSGV 221120Z 07005KT M00/M01 A2986 RMK A01 T10031014  RH  093%=      5-min Rain = 0
KSGV 221125Z 07005KT M00/M01 A2986 RMK A01 T10021013  RH  093%=      5-min Rain = 0
KSGV 221130Z 05005KT M00/M01 A2986 RMK A01 T10011012  RH  093%=      5-min Rain = 0
KSGV 221135Z 04004KT M00/M01 A2987 RMK A01 T10021013  RH  093%=      5-min Rain = 0
KSGV 221140Z 04004KT M00/M02 A2987 RMK A01 T10041015  RH  093%=      5-min Rain = 0
KSGV 221145Z 04003KT M01/M02 A2987 RMK A01 T10061017  RH  093%=      5-min Rain = 0
KSGV 221150Z 05003KT M01/M02 A2987 RMK A01 T10081018  RH  093%=      5-min Rain = 0
KSGV 221155Z 06003KT M01/M02 A2987 RMK A01 T10081019  RH  093%=      5-min Rain = 0
KSGV 221200Z 06004KT M01/M02 A2987 RMK A01 T10081018  RH  094%=      5-min Rain = 0
KSGV 221205Z 06005KT M01/M02 A2987 RMK A01 T10061016  RH  094%=      5-min Rain = 0
KSGV 221210Z 07005KT M01/M02 A2987 RMK A01 T10051016  RH  093%=      5-min Rain = 0
KSGV 221215Z 07006KT M01/M02 A2987 RMK A01 T10071018  RH  093%=      5-min Rain = 0
KSGV 221220Z 07005KT M01/M02 A2987 RMK A01 T10091020  RH  092%=      5-min Rain = 0
KSGV 221225Z 07006KT M01/M02 A2987 RMK A01 T10101023  RH  092%=      5-min Rain = 0
KSGV 221230Z 07006KT M01/M02 A2988 RMK A01 T10121024  RH  092%=      5-min Rain = 0
KSGV 221235Z 06005KT M01/M03 A2988 RMK A01 T10121025  RH  092%=      5-min Rain = 0
KSGV 221240Z 05005KT M01/M02 A2988 RMK A01 T10121024  RH  092%=      5-min Rain = 0
KSGV 221245Z 06005KT M01/M02 A2989 RMK A01 T10091020  RH  093%=      5-min Rain = 0
KSGV 221250Z 06005KT M01/M02 A2989 RMK A01 T10061017  RH  093%=      5-min Rain = 0
KSGV 221255Z 07005KT M00/M02 A2989 RMK A01 T10041016  RH  092%=      5-min Rain = 0
KSGV 221300Z 07005KT M00/M02 A2989 RMK A01 T10031016  RH  092%=      5-min Rain = 0
KSGV 221305Z 06004KT M00/M02 A2989 RMK A01 T10041017  RH  092%=      5-min Rain = 0
KSGV 221310Z 06004KT M00/M02 A2989 RMK A01 T10031016  RH  092%=      5-min Rain = 0
KSGV 221315Z 06004KT M00/M02 A2989 RMK A01 T10021015  RH  092%=      5-min Rain = 0
KSGV 221320Z 06004KT M00/M01 A2989 RMK A01 T10011014  RH  092%=      5-min Rain = 0
KSGV 221325Z 06005KT 00/01 A2989 RMK A01 T00000-13  RH  092%=      5-min Rain = 0
KSGV 221330Z 07005KT 00/01 A2989 RMK A01 T00000-13  RH  091%=      5-min Rain = 0
KSGV 221335Z 08003KT 00/01 A2989 RMK A01 T00000-13  RH  091%=      5-min Rain = 0
KSGV 221340Z 08003KT 00/M01 A2989 RMK A01 T00021012  RH  092%=      5-min Rain = 0
KSGV 221345Z 08004KT 00/M01 A2989 RMK A01 T00031011  RH  091%=      5-min Rain = 0
KSGV 221350Z 08003KT 00/M01 A299 RMK A01 T00041010  RH  091%=      5-min Rain = 0
KSGV 221355Z 08004KT 01/M01 A299 RMK A01 T00051008  RH  091%=      5-min Rain = 0
KSGV 221400Z 09003KT 01/M01 A299 RMK A01 T00081006  RH  092%=      5-min Rain = 0
KSGV 221405Z 09004KT 01/M00 A299 RMK A01 T00111001  RH  092%=      5-min Rain = 0
KSGV 221410Z 10005KT 01/00 A299 RMK A01 T00130001  RH  093%=      5-min Rain = 0
KSGV 221415Z 10004KT 01/00 A2991 RMK A01 T00130002  RH  094%=      5-min Rain = 0
KSGV 221420Z 10004KT 01/01 A2991 RMK A01 T00140005  RH  095%=      5-min Rain = 0
KSGV 221425Z 10004KT 02/01 A2991 RMK A01 T00150005  RH  095%=      5-min Rain = 0
KSGV 221430Z 10004KT 02/01 A2992 RMK A01 T00150007  RH  095%=      5-min Rain = 0
KSGV 221435Z 10004KT 02/01 A2992 RMK A01 T00170009  RH  096%=      5-min Rain = 0
KSGV 221440Z 11005KT 02/01 A2992 RMK A01 T00200012  RH  096%=      5-min Rain = 0
KSGV 221445Z 11005KT 02/02 A2992 RMK A01 T00220015  RH  097%=      5-min Rain = 0
KSGV 221450Z 11005KT 02/02 A2992 RMK A01 T00240017  RH  097%=      5-min Rain = 0
KSGV 221455Z 11005KT 03/02 A2993 RMK A01 T00260020  RH  097%=      5-min Rain = 0
KSGV 221500Z 12006KT 03/02 A2993 RMK A01 T00280022  RH  097%=      5-min Rain = 0
KSGV 221505Z 12006KT 03/02 A2993 RMK A01 T00300024  RH  097%=      5-min Rain = 0
KSGV 221510Z 12005KT 03/03 A2993 RMK A01 T00310025  RH  097%=      5-min Rain = 0
KSGV 221515Z 13004KT 03/03 A2993 RMK A01 T00340028  RH  098%=      5-min Rain = 0
KSGV 221520Z 12005KT 04/03 A2994 RMK A01 T00370031  RH  098%=      5-min Rain = 0
KSGV 221525Z 12006KT 04/03 A2994 RMK A01 T00380032  RH  097%=      5-min Rain = 0
KSGV 221530Z 12006KT 04/03 A2994 RMK A01 T00400034  RH  097%=      5-min Rain = 0
KSGV 221535Z 13006KT 04/04 A2994 RMK A01 T00420036  RH  097%=      5-min Rain = 0
KSGV 221540Z 13006KT 04/04 A2994 RMK A01 T00440037  RH  097%=      5-min Rain = 0
KSGV 221545Z 13006KT 05/04 A2993 RMK A01 T00450038  RH  097%=      5-min Rain = 0
KSGV 221550Z 14006KT 05/04 A2993 RMK A01 T00480040  RH  096%=      5-min Rain = 0
KSGV 221555Z 14007KT 05/04 A2993 RMK A01 T00490039  RH  095%=      5-min Rain = 0
KSGV 221600Z 14006KT 05/04 A2993 RMK A01 T00500039  RH  094%=      5-min Rain = 0
KSGV 221605Z 14007KT 05/04 A2993 RMK A01 T00520039  RH  093%=      5-min Rain = 0
KSGV 221610Z 15007KT 05/04 A2993 RMK A01 T00520038  RH  093%=      5-min Rain = 0
KSGV 221615Z 14008KT 05/04 A2993 RMK A01 T00540040  RH  092%=      5-min Rain = 0
KSGV 221620Z 14008KT 06/04 A2993 RMK A01 T00550040  RH  092%=      5-min Rain = 0
KSGV 221625Z 14007KT 06/04 A2993 RMK A01 T00550039  RH  091%=      5-min Rain = 0
KSGV 221630Z 15007KT 06/04 A2993 RMK A01 T00560041  RH  092%=      5-min Rain = 0
KSGV 221635Z 15007KT 06/04 A2993 RMK A01 T00590042  RH  091%=      5-min Rain = 0
KSGV 221640Z 15007KT 06/04 A2993 RMK A01 T00600042  RH  090%=      5-min Rain = 0
KSGV 221645Z 14007KT 06/04 A2993 RMK A01 T00610042  RH  090%=      5-min Rain = 0
KSGV 221650Z 13007KT 06/04 A2993 RMK A01 T00620041  RH  088%=      5-min Rain = 0
KSGV 221655Z 15006KT 06/04 A2993 RMK A01 T00640043  RH  088%=      5-min Rain = 0
KSGV 221700Z 13007KT 06/04 A2992 RMK A01 T00640043  RH  088%=      5-min Rain = 0
KSGV 221705Z 15007KT 07/05 A2992 RMK A01 T00660045  RH  088%=      5-min Rain = 0
KSGV 221710Z 15007KT 07/05 A2992 RMK A01 T00690045  RH  087%=      5-min Rain = 0
KSGV 221715Z 14005KT 07/05 A2992 RMK A01 T00720046  RH  086%=      5-min Rain = 0
KSGV 221720Z 15006G11KT 07/05 A2992 RMK A01 T00730046  RH  085%=      5-min Rain = 0
KSGV 221725Z 14007KT 08/05 A2992 RMK A01 T00750046  RH  083%=      5-min Rain = 0
KSGV 221730Z 13006KT 08/05 A2992 RMK A01 T00760046  RH  083%=      5-min Rain = 0
KSGV 221735Z 16007KT 08/05 A2991 RMK A01 T00790047  RH  082%=      5-min Rain = 0
KSGV 221740Z 15007KT 08/05 A2991 RMK A01 T00820049  RH  082%=      5-min Rain = 0
KSGV 221745Z 14007KT 09/05 A2991 RMK A01 T00870049  RH  079%=      5-min Rain = 0
KSGV 221750Z 13006G11KT 09/05 A299 RMK A01 T00890048  RH  077%=      5-min Rain = 0
KSGV 221755Z 16007G13KT 10/05 A299 RMK A01 T00970050  RH  074%=      5-min Rain = 0
KSGV 221800Z 16007G12KT 10/05 A299 RMK A01 T00990048  RH  072%=      5-min Rain = 0
KSGV 221805Z 16007KT 10/05 A299 RMK A01 T00990047  RH  072%=      5-min Rain = 0
KSGV 221810Z 16005KT 10/05 A2989 RMK A01 T01040050  RH  071%=      5-min Rain = 0
KSGV 221815Z 15007KT 11/05 A2989 RMK A01 T01050048  RH  069%=      5-min Rain = 0
KSGV 221820Z 15006KT 11/05 A2989 RMK A01 T01070047  RH  067%=      5-min Rain = 0
KSGV 221825Z 16007KT 11/05 A2989 RMK A01 T01120047  RH  065%=      5-min Rain = 0
KSGV 221830Z 16007KT 12/05 A2988 RMK A01 T01180045  RH  062%=      5-min Rain = 0
KSGV 221835Z 14006G11KT 12/05 A2988 RMK A01 T01190046  RH  062%=      5-min Rain = 0
KSGV 221840Z 16007KT 12/05 A2988 RMK A01 T01240048  RH  061%=      5-min Rain = 0
KSGV 221845Z 15007KT 13/04 A2988 RMK A01 T01260042  RH  058%=      5-min Rain = 0
KSGV 221850Z 16006KT 13/05 A2987 RMK A01 T01280045  RH  058%=      5-min Rain = 0
KSGV 221855Z 14006KT 13/04 A2987 RMK A01 T01290043  RH  057%=      5-min Rain = 0
KSGV 221900Z 17006KT 14/04 A2987 RMK A01 T01350040  RH  054%=      5-min Rain = 0
KSGV 221905Z 16007KT 14/04 A2986 RMK A01 T01400036  RH  050%=      5-min Rain = 0
KSGV 221910Z 15007KT 14/04 A2985 RMK A01 T01410039  RH  051%=      5-min Rain = 0
KSGV 221915Z 15007KT 14/03 A2985 RMK A01 T01430033  RH  048%=      5-min Rain = 0
KSGV 221920Z 15005KT 14/03 A2985 RMK A01 T01430028  RH  047%=      5-min Rain = 0
KSGV 221925Z 14006KT 15/04 A2984 RMK A01 T01450035  RH  049%=      5-min Rain = 0
KSGV 221930Z 13005KT 15/03 A2984 RMK A01 T01500031  RH  046%=      5-min Rain = 0
KSGV 221935Z 13006KT 15/03 A2984 RMK A01 T01500029  RH  045%=      5-min Rain = 0
KSGV 221940Z 11005KT 15/03 A2983 RMK A01 T01490034  RH  047%=      5-min Rain = 0
KSGV 221945Z 13007KT 15/03 A2983 RMK A01 T01530029  RH  044%=      5-min Rain = 0
KSGV 221950Z 15006KT 16/02 A2983 RMK A01 T01570018  RH  040%=      5-min Rain = 0
KSGV 221955Z 13005KT 16/03 A2982 RMK A01 T01580027  RH  042%=      5-min Rain = 0
KSGV 222000Z 13006KT 16/03 A2982 RMK A01 T01600030  RH  043%=      5-min Rain = 0
KSGV 222005Z 13006KT 16/03 A2981 RMK A01 T01610026  RH  041%=      5-min Rain = 0
KSGV 222010Z 11007G13KT 16/03 A2981 RMK A01 T01640025  RH  040%=      5-min Rain = 0
KSGV 222015Z 13006G11KT 16/03 A298 RMK A01 T01610026  RH  041%=      5-min Rain = 0
KSGV 222020Z 14008KT 17/02 A298 RMK A01 T01650023  RH  039%=      5-min Rain = 0
KSGV 222025Z 14007G12KT 17/02 A298 RMK A01 T01660018  RH  037%=      5-min Rain = 0
KSGV 222030Z 14005G10KT 17/01 A2979 RMK A01 T01700012  RH  035%=      5-min Rain = 0
KSGV 222035Z 13007KT 17/02 A2979 RMK A01 T01680015  RH  036%=      5-min Rain = 0
KSGV 222040Z 13008KT 17/02 A2979 RMK A01 T01690021  RH  037%=      5-min Rain = 0
KSGV 222045Z 12009KT 17/02 A2978 RMK A01 T01710020  RH  037%=      5-min Rain = 0
KSGV 222050Z 13007KT 17/02 A2978 RMK A01 T01710020  RH  037%=      5-min Rain = 0
KSGV 222055Z 14008G13KT 18/01 A2978 RMK A01 T01750012  RH  034%=      5-min Rain = 0
KSGV 222100Z 12007KT 18/02 A2978 RMK A01 T01750018  RH  035%=      5-min Rain = 0
KSGV 222105Z 12008KT 17/01 A2978 RMK A01 T01740012  RH  034%=      5-min Rain = 0
KSGV 222110Z 14008G14KT 18/01 A2978 RMK A01 T01760014  RH  034%=      5-min Rain = 0
KSGV 222115Z 14008G14KT 18/02 A2978 RMK A01 T01810016  RH  033%=      5-min Rain = 0
KSGV 222120Z 13009G14KT 18/01 A2978 RMK A01 T01760014  RH  034%=      5-min Rain = 0
KSGV 222125Z 15010G15KT 18/01 A2978 RMK A01 T01780007  RH  032%=      5-min Rain = 0
KSGV 222130Z 16009G16KT 18/01 A2977 RMK A01 T01830008  RH  031%=      5-min Rain = 0
KSGV 222135Z 14010G16KT 18/01 A2977 RMK A01 T01820007  RH  031%=      5-min Rain = 0
KSGV 222140Z 15009KT 18/01 A2977 RMK A01 T01810006  RH  031%=      5-min Rain = 0
KSGV 222145Z 15009KT 19/01 A2977 RMK A01 T01860006  RH  030%=      5-min Rain = 0
KSGV 222150Z 15012G18KT 19/00 A2977 RMK A01 T01850001  RH  029%=      5-min Rain = 0
KSGV 222155Z 17010G15KT 19/M00 A2976 RMK A01 T01881004  RH  028%=      5-min Rain = 0
KSGV 222200Z 16010G15KT 19/M01 A2976 RMK A01 T01891007  RH  027%=      5-min Rain = 0
KSGV 222205Z 15011G18KT 19/M01 A2976 RMK A01 T01891007  RH  027%=      5-min Rain = 0
KSGV 222210Z 14013KT 19/M01 A2976 RMK A01 T01861011  RH  026%=      5-min Rain = 0
KSGV 222215Z 14010G16KT 19/M01 A2976 RMK A01 T01871008  RH  027%=      5-min Rain = 0
KSGV 222220Z 14009G16KT 19/M01 A2976 RMK A01 T01881005  RH  028%=      5-min Rain = 0
KSGV 222225Z 16011G16KT 19/M01 A2975 RMK A01 T01901010  RH  026%=      5-min Rain = 0
KSGV 222230Z 15010G16KT 19/M00 A2975 RMK A01 T01881004  RH  028%=      5-min Rain = 0
KSGV 222235Z 15009G14KT 19/00 A2975 RMK A01 T01890003  RH  029%=      5-min Rain = 0
KSGV 222240Z 15009G14KT 19/00 A2974 RMK A01 T01890003  RH  029%=      5-min Rain = 0
KSGV 222245Z 15008KT 19/01 A2974 RMK A01 T01900006  RH  030%=      5-min Rain = 0
KSGV 222250Z 14009KT 19/00 A2974 RMK A01 T01880004  RH  029%=      5-min Rain = 0
KSGV 222255Z 15010KT 19/00 A2974 RMK A01 T01880000  RH  029%=      5-min Rain = 0
KSGV 222300Z 14010G16KT 19/M00 A2974 RMK A01 T01881001  RH  028%=      5-min Rain = 0
KSGV 222305Z 14008KT 19/M00 A2974 RMK A01 T01871002  RH  028%=      5-min Rain = 0
KSGV 222310Z 14008KT 19/M00 A2973 RMK A01 T01891003  RH  028%=      5-min Rain = 0
KSGV 222315Z 12008G13KT 19/M01 A2973 RMK A01 T01901008  RH  026%=      5-min Rain = 0
KSGV 222320Z 14009KT 19/M02 A2973 RMK A01 T01901017  RH  025%=      5-min Rain = 0
KSGV 222325Z 14010G16KT 19/M03 A2973 RMK A01 T01911031  RH  022%=      5-min Rain = 0
KSGV 222330Z 14010G16KT 19/M03 A2973 RMK A01 T01901030  RH  023%=      5-min Rain = 0
KSGV 222335Z 14008KT 19/M03 A2972 RMK A01 T01891031  RH  022%=      5-min Rain = 0
KSGV 222340Z 12008G14KT 19/M01 A2972 RMK A01 T01881014  RH  026%=      5-min Rain = 0
KSGV 222345Z 10009G15KT 18/00 A2972 RMK A01 T01840004  RH  030%=      5-min Rain = 0
KSGV 222350Z 10009G18KT 17/05 A2972 RMK A01 T01740048  RH  044%=      5-min Rain = 0
KSGV 222355Z 09012G19KT 17/06 A2972 RMK A01 T01660057  RH  049%=      5-min Rain = 0
KSGV 230000Z 08012G20KT 16/06 A2972 RMK A01 T01600063  RH  054%=      5-min Rain = 0
KSGV 230005Z 09013G20KT 16/06 A2972 RMK A01 T01550064  RH  056%=      5-min Rain = 0
KSGV 230010Z 09012G18KT 15/07 A2972 RMK A01 T01520066  RH  058%=      5-min Rain = 0
KSGV 230015Z 09013G22KT 15/07 A2972 RMK A01 T01490066  RH  059%=      5-min Rain = 0
KSGV 230020Z 08012G18KT 14/07 A2972 RMK A01 T01430065  RH  061%=      5-min Rain = 0
KSGV 230025Z 08012G21KT 14/07 A2972 RMK A01 T01370065  RH  063%=      5-min Rain = 0
KSGV 230030Z 08012G17KT 13/06 A2972 RMK A01 T01330064  RH  065%=      5-min Rain = 0
KSGV 230035Z 08011G17KT 13/06 A2971 RMK A01 T01300064  RH  066%=      5-min Rain = 0
KSGV 230040Z 08010G16KT 13/06 A2971 RMK A01 T01270064  RH  067%=      5-min Rain = 0
KSGV 230045Z 08010G16KT 12/06 A2971 RMK A01 T01240064  RH  068%=      5-min Rain = 0
KSGV 230050Z 08010G17KT 12/07 A2971 RMK A01 T01230065  RH  069%=      5-min Rain = 0
KSGV 230055Z 08011G16KT 12/06 A2971 RMK A01 T01210064  RH  070%=      5-min Rain = 0
KSGV 230100Z 08012G19KT 12/06 A2971 RMK A01 T01190064  RH  071%=      5-min Rain = 0
KSGV 230105Z 07012G19KT 12/06 A2971 RMK A01 T01160063  RH  071%=      5-min Rain = 0
KSGV 230110Z 08010G17KT 11/06 A2971 RMK A01 T01120062  RH  073%=      5-min Rain = 0
KSGV 230115Z 08011G18KT 11/06 A2971 RMK A01 T01100061  RH  074%=      5-min Rain = 0
KSGV 230120Z 07013G19KT 11/06 A2971 RMK A01 T01070060  RH  075%=      5-min Rain = 0
KSGV 230125Z 07013G19KT 10/06 A297 RMK A01 T01010059  RH  077%=      5-min Rain = 0
KSGV 230130Z 08009G14KT 10/06 A297 RMK A01 T00970059  RH  079%=      5-min Rain = 0
KSGV 230135Z 08011G18KT 09/06 A297 RMK A01 T00940059  RH  080%=      5-min Rain = 0
KSGV 230140Z 08013G20KT 09/06 A297 RMK A01 T00920059  RH  082%=      5-min Rain = 0
KSGV 230145Z 08014G24KT 09/06 A297 RMK A01 T00870058  RH  084%=      5-min Rain = 0
KSGV 230150Z 08012G19KT 09/06 A297 RMK A01 T00850059  RH  086%=      5-min Rain = 0
KSGV 230155Z 08015G23KT 08/06 A297 RMK A01 T00810059  RH  088%=      5-min Rain = 0
KSGV 230200Z 08015G24KT 08/06 A297 RMK A01 T00790061  RH  090%=      5-min Rain = 0
KSGV 230205Z 08015G24KT 08/06 A2969 RMK A01 T00780062  RH  092%=      5-min Rain = 0
KSGV 230210Z 09014G25KT 08/06 A2968 RMK A01 T00770062  RH  092%=      5-min Rain = 0
KSGV 230215Z 09017G24KT 08/06 A2968 RMK A01 T00770063  RH  093%=      5-min Rain = 0
KSGV 230220Z 09014G26KT 08/06 A2969 RMK A01 T00760063  RH  094%=      5-min Rain = 0
KSGV 230225Z 09014G21KT 08/06 A297 RMK A01 T00750064  RH  095%=      5-min Rain = 0
KSGV 230230Z 09015G25KT 07/06 A297 RMK A01 T00740064  RH  095%=      5-min Rain = 0
KSGV 230235Z 09013G21KT 08/07 A2971 RMK A01 T00750065  RH  096%=      5-min Rain = 0
KSGV 230240Z 09012G19KT 08/07 A2972 RMK A01 T00750065  RH  096%=      5-min Rain = 0
KSGV 230245Z 09009G16KT 08/07 A2973 RMK A01 T00750066  RH  097%=      5-min Rain = 0
KSGV 230250Z 09005G10KT 08/07 A2974 RMK A01 T00750066  RH  097%=      5-min Rain = 0
KSGV 230255Z 06004KT 07/07 A2973 RMK A01 T00740066  RH  097%=      5-min Rain = 0
KSGV 230300Z 06005KT 08/07 A2973 RMK A01 T00750067  RH  097%=      5-min Rain = 0
KSGV 230305Z 04006KT 08/07 A2973 RMK A01 T00750067  RH  098%=      5-min Rain = 0
KSGV 230310Z 03008KT 08/07 A2973 RMK A01 T00750068  RH  098%=      5-min Rain = 0
KSGV 230315Z 04008G13KT 08/07 A2973 RMK A01 T00750069  RH  098%=      5-min Rain = 0
KSGV 230320Z 03007KT 08/07 A2974 RMK A01 T00750068  RH  098%=      5-min Rain = 0
KSGV 230325Z 05008KT 08/07 A2973 RMK A01 T00750068  RH  098%=      5-min Rain = 0
KSGV 230330Z 07009G14KT 08/07 A2972 RMK A01 T00750068  RH  098%=      5-min Rain = 0
KSGV 230335Z 07010G18KT 08/07 A2971 RMK A01 T00750069  RH  098%=      5-min Rain = 0
KSGV 230340Z 07009G15KT 08/07 A2972 RMK A01 T00750069  RH  099%=      5-min Rain = 0
KSGV 230345Z 07007G14KT 08/07 A2973 RMK A01 T00750070  RH  099%=      5-min Rain = 0
KSGV 230350Z 05007KT 08/07 A2973 RMK A01 T00770072  RH  099%=      5-min Rain = 0
KSGV 230355Z 05006KT 08/07 A2973 RMK A01 T00770071  RH  099%=      5-min Rain = 0
KSGV 230400Z 05006KT 08/07 A2973 RMK A01 T00770071  RH  098%=      5-min Rain = 0
KSGV 230405Z 06007G12KT 08/07 A2973 RMK A01 T00770071  RH  098%=      5-min Rain = 0
KSGV 230410Z 08010KT 08/07 A2972 RMK A01 T00770070  RH  098%=      5-min Rain = 0
KSGV 230415Z 07010KT 08/07 A2971 RMK A01 T00760070  RH  098%=      5-min Rain = 0
KSGV 230420Z 07009KT 08/07 A2972 RMK A01 T00760070  RH  099%=      5-min Rain = 0
KSGV 230425Z 07010KT 08/07 A2972 RMK A01 T00750069  RH  099%=      5-min Rain = 0
KSGV 230430Z 07007G13KT 08/07 A2971 RMK A01 T00750070  RH  099%=      5-min Rain = 0
KSGV 230435Z 08006G11KT 08/07 A2972 RMK A01 T00770072  RH  099%=      5-min Rain = 0
KSGV 230440Z 08005G10KT 08/07 A2972 RMK A01 T00780073  RH  099%=      5-min Rain = 0
KSGV 230445Z 08007KT 08/07 A2972 RMK A01 T00780073  RH  099%=      5-min Rain = 0
KSGV 230450Z 10007KT 08/08 A2972 RMK A01 T00800075  RH  099%=      5-min Rain = 0
KSGV 230455Z 10010G15KT 08/08 A2971 RMK A01 T00820077  RH  099%=      5-min Rain = 0
KSGV 230500Z 10008G13KT 08/08 A2971 RMK A01 T00830078  RH  099%=      5-min Rain = 0
KSGV 230505Z 11009G17KT 09/08 A2971 RMK A01 T00860080  RH  099%=      5-min Rain = 0
KSGV 230510Z 11008G13KT 09/08 A2971 RMK A01 T00870079  RH  098%=      5-min Rain = 0
KSGV 230515Z 11008G13KT 09/08 A2971 RMK A01 T00870078  RH  097%=      5-min Rain = 0
KSGV 230520Z 12006KT 09/08 A2972 RMK A01 T00870078  RH  096%=      5-min Rain = 0
KSGV 230525Z 11008KT 09/08 A2972 RMK A01 T00870077  RH  096%=      5-min Rain = 0
KSGV 230530Z 11008KT 09/08 A2973 RMK A01 T00870077  RH  096%=      5-min Rain = 0
KSGV 230535Z 12009G14KT 09/08 A2972 RMK A01 T00880078  RH  096%=      5-min Rain = 0
KSGV 230540Z 12008KT 09/08 A2972 RMK A01 T00880077  RH  095%=      5-min Rain = 0
KSGV 230545Z 12007KT 09/08 A2972 RMK A01 T00890078  RH  095%=      5-min Rain = 0
KSGV 230550Z 12007G12KT 09/08 A2972 RMK A01 T00890078  RH  095%=      5-min Rain = 0
KSGV 230555Z 12007G12KT 09/08 A2972 RMK A01 T00890078  RH  095%=      5-min Rain = 0

Page generated in 0.0091 seconds.